sensor_id;sensor_type;location;lat;lon;timestamp;temperature;humidity
4922;DHT22;16625;53.624;10.106;2023-11-21T00:01:31;8.20;99.90
4922;DHT22;16625;53.624;10.106;2023-11-21T00:03:59;8.20;99.90
4922;DHT22;16625;53.624;10.106;2023-11-21T00:06:27;8.10;99.90
4922;DHT22;16625;53.624;10.106;2023-11-21T00:08:55;8.10;99.90
4922;DHT22;16625;53.624;10.106;2023-11-21T00:11:22;8.10;99.90
4922;DHT22;16625;53.624;10.106;2023-11-21T00:13:50;8.10;99.90
4922;DHT22;16625;53.624;10.106;2023-11-21T00:16:18;8.00;99.90
4922;DHT22;16625;53.624;10.106;2023-11-21T00:18:45;8.00;99.90
4922;DHT22;16625;53.624;10.106;2023-11-21T00:21:13;8.00;99.90
4922;DHT22;16625;53.624;10.106;2023-11-21T00:23:40;7.90;99.90
4922;DHT22;16625;53.624;10.106;2023-11-21T00:26:07;7.80;99.90
4922;DHT22;16625;53.624;10.106;2023-11-21T00:28:33;7.80;99.90
4922;DHT22;16625;53.624;10.106;2023-11-21T00:31:00;7.80;99.90
4922;DHT22;16625;53.624;10.106;2023-11-21T00:33:29;7.70;99.90
4922;DHT22;16625;53.624;10.106;2023-11-21T00:35:56;7.60;99.90
4922;DHT22;16625;53.624;10.106;2023-11-21T00:38:22;7.70;99.90
4922;DHT22;16625;53.624;10.106;2023-11-21T00:40:49;7.60;99.90
4922;DHT22;16625;53.624;10.106;2023-11-21T00:43:17;7.60;99.90
4922;DHT22;16625;53.624;10.106;2023-11-21T00:45:43;7.50;99.90
4922;DHT22;16625;53.624;10.106;2023-11-21T00:48:10;7.50;99.90
4922;DHT22;16625;53.624;10.106;2023-11-21T00:50:40;7.60;99.90
4922;DHT22;16625;53.624;10.106;2023-11-21T00:53:07;7.60;99.90
4922;DHT22;16625;53.624;10.106;2023-11-21T00:55:34;7.50;99.90
4922;DHT22;16625;53.624;10.106;2023-11-21T00:58:01;7.60;99.90
4922;DHT22;16625;53.624;10.106;2023-11-21T01:00:29;7.80;99.90
4922;DHT22;16625;53.624;10.106;2023-11-21T01:02:56;7.50;99.90
4922;DHT22;16625;53.624;10.106;2023-11-21T01:05:23;7.50;99.90
4922;DHT22;16625;53.624;10.106;2023-11-21T01:07:52;7.40;99.90
4922;DHT22;16625;53.624;10.106;2023-11-21T01:10:19;7.50;99.90
4922;DHT22;16625;53.624;10.106;2023-11-21T01:12:46;7.40;99.90
4922;DHT22;16625;53.624;10.106;2023-11-21T01:15:14;7.30;99.90
4922;DHT22;16625;53.624;10.106;2023-11-21T01:17:41;7.30;99.90
4922;DHT22;16625;53.624;10.106;2023-11-21T01:20:09;7.50;99.90
4922;DHT22;16625;53.624;10.106;2023-11-21T01:22:37;7.20;99.90
4922;DHT22;16625;53.624;10.106;2023-11-21T01:25:06;7.20;99.90
4922;DHT22;16625;53.624;10.106;2023-11-21T01:27:33;7.10;99.90
4922;DHT22;16625;53.624;10.106;2023-11-21T01:30:01;7.20;99.90
4922;DHT22;16625;53.624;10.106;2023-11-21T01:32:27;7.20;99.90
4922;DHT22;16625;53.624;10.106;2023-11-21T01:34:55;7.10;99.90
4922;DHT22;16625;53.624;10.106;2023-11-21T01:37:21;7.10;99.90
4922;DHT22;16625;53.624;10.106;2023-11-21T01:39:48;7.00;99.90
4922;DHT22;16625;53.624;10.106;2023-11-21T01:42:17;7.40;99.90
4922;DHT22;16625;53.624;10.106;2023-11-21T01:44:44;6.90;99.90
4922;DHT22;16625;53.624;10.106;2023-11-21T01:47:12;6.90;99.90
4922;DHT22;16625;53.624;10.106;2023-11-21T01:49:39;6.90;99.90
4922;DHT22;16625;53.624;10.106;2023-11-21T01:52:08;7.10;99.90
4922;DHT22;16625;53.624;10.106;2023-11-21T01:54:36;7.20;99.90
4922;DHT22;16625;53.624;10.106;2023-11-21T01:57:04;6.80;99.90
4922;DHT22;16625;53.624;10.106;2023-11-21T01:59:34;6.80;99.90
4922;DHT22;16625;53.624;10.106;2023-11-21T02:02:02;6.80;99.90
4922;DHT22;16625;53.624;10.106;2023-11-21T02:04:30;6.80;99.90
4922;DHT22;16625;53.624;10.106;2023-11-21T02:06:57;6.80;99.90
4922;DHT22;16625;53.624;10.106;2023-11-21T02:09:25;6.70;99.90
4922;DHT22;16625;53.624;10.106;2023-11-21T02:11:52;6.70;99.90
4922;DHT22;16625;53.624;10.106;2023-11-21T02:14:20;6.70;99.90
4922;DHT22;16625;53.624;10.106;2023-11-21T02:16:50;6.60;99.90
4922;DHT22;16625;53.624;10.106;2023-11-21T02:19:18;6.90;99.90
4922;DHT22;16625;53.624;10.106;2023-11-21T02:21:49;6.60;99.90
4922;DHT22;16625;53.624;10.106;2023-11-21T02:24:18;6.60;99.90
4922;DHT22;16625;53.624;10.106;2023-11-21T02:26:45;6.50;99.90
4922;DHT22;16625;53.624;10.106;2023-11-21T02:29:12;6.50;99.90
4922;DHT22;16625;53.624;10.106;2023-11-21T02:31:42;7.50;99.90
4922;DHT22;16625;53.624;10.106;2023-11-21T02:34:13;6.50;99.90
4922;DHT22;16625;53.624;10.106;2023-11-21T02:36:40;6.90;99.90
4922;DHT22;16625;53.624;10.106;2023-11-21T02:39:08;6.50;99.90
4922;DHT22;16625;53.624;10.106;2023-11-21T02:41:37;6.50;99.90
4922;DHT22;16625;53.624;10.106;2023-11-21T02:44:04;6.50;99.90
4922;DHT22;16625;53.624;10.106;2023-11-21T02:46:32;6.50;99.90
4922;DHT22;16625;53.624;10.106;2023-11-21T02:49:00;6.80;99.90
4922;DHT22;16625;53.624;10.106;2023-11-21T02:51:27;6.50;99.90
4922;DHT22;16625;53.624;10.106;2023-11-21T02:53:54;6.40;99.90
4922;DHT22;16625;53.624;10.106;2023-11-21T02:56:24;6.40;99.90
4922;DHT22;16625;53.624;10.106;2023-11-21T02:58:52;6.30;99.90
4922;DHT22;16625;53.624;10.106;2023-11-21T03:01:19;6.30;99.90
4922;DHT22;16625;53.624;10.106;2023-11-21T03:03:46;6.40;99.90
4922;DHT22;16625;53.624;10.106;2023-11-21T03:06:16;6.40;99.90
4922;DHT22;16625;53.624;10.106;2023-11-21T03:08:43;6.50;99.90
4922;DHT22;16625;53.624;10.106;2023-11-21T03:11:10;6.30;99.90
4922;DHT22;16625;53.624;10.106;2023-11-21T03:13:38;6.60;99.90
4922;DHT22;16625;53.624;10.106;2023-11-21T03:16:07;6.20;99.90
4922;DHT22;16625;53.624;10.106;2023-11-21T03:18:34;6.10;99.90
4922;DHT22;16625;53.624;10.106;2023-11-21T03:21:01;6.10;99.90
4922;DHT22;16625;53.624;10.106;2023-11-21T03:23:28;6.10;99.90
4922;DHT22;16625;53.624;10.106;2023-11-21T03:25:55;6.30;99.90
4922;DHT22;16625;53.624;10.106;2023-11-21T03:28:22;6.20;99.90
4922;DHT22;16625;53.624;10.106;2023-11-21T03:30:50;6.10;99.90
4922;DHT22;16625;53.624;10.106;2023-11-21T03:33:18;6.20;99.90
4922;DHT22;16625;53.624;10.106;2023-11-21T03:35:45;6.20;99.90
4922;DHT22;16625;53.624;10.106;2023-11-21T03:38:12;6.30;99.90
4922;DHT22;16625;53.624;10.106;2023-11-21T03:40:39;6.10;99.90
4922;DHT22;16625;53.624;10.106;2023-11-21T03:43:06;6.60;99.90
4922;DHT22;16625;53.624;10.106;2023-11-21T03:45:33;6.10;99.90
4922;DHT22;16625;53.624;10.106;2023-11-21T03:48:00;6.20;99.90
4922;DHT22;16625;53.624;10.106;2023-11-21T03:50:29;6.60;99.90
4922;DHT22;16625;53.624;10.106;2023-11-21T03:52:55;6.30;99.90
4922;DHT22;16625;53.624;10.106;2023-11-21T03:55:22;6.60;99.90
4922;DHT22;16625;53.624;10.106;2023-11-21T03:57:50;6.20;99.90
4922;DHT22;16625;53.624;10.106;2023-11-21T04:00:18;6.20;99.90
4922;DHT22;16625;53.624;10.106;2023-11-21T04:02:46;6.30;99.90
4922;DHT22;16625;53.624;10.106;2023-11-21T04:05:13;6.30;99.90
4922;DHT22;16625;53.624;10.106;2023-11-21T04:07:42;6.30;99.90
4922;DHT22;16625;53.624;10.106;2023-11-21T04:10:09;6.20;99.90
4922;DHT22;16625;53.624;10.106;2023-11-21T04:12:38;6.20;99.90
4922;DHT22;16625;53.624;10.106;2023-11-21T04:15:06;6.30;99.90
4922;DHT22;16625;53.624;10.106;2023-11-21T04:17:35;6.20;99.90
4922;DHT22;16625;53.624;10.106;2023-11-21T04:20:02;6.20;99.90
4922;DHT22;16625;53.624;10.106;2023-11-21T04:22:29;6.20;99.90
4922;DHT22;16625;53.624;10.106;2023-11-21T04:24:57;6.30;99.90
4922;DHT22;16625;53.624;10.106;2023-11-21T04:27:24;6.30;99.90
4922;DHT22;16625;53.624;10.106;2023-11-21T04:29:51;6.50;99.90
4922;DHT22;16625;53.624;10.106;2023-11-21T04:32:18;6.50;99.90
4922;DHT22;16625;53.624;10.106;2023-11-21T04:34:44;6.20;99.90
4922;DHT22;16625;53.624;10.106;2023-11-21T04:37:11;6.20;99.90
4922;DHT22;16625;53.624;10.106;2023-11-21T04:39:38;6.20;99.90
4922;DHT22;16625;53.624;10.106;2023-11-21T04:42:07;6.20;99.90
4922;DHT22;16625;53.624;10.106;2023-11-21T04:44:34;6.20;99.90
4922;DHT22;16625;53.624;10.106;2023-11-21T04:47:00;6.20;99.90
4922;DHT22;16625;53.624;10.106;2023-11-21T04:49:30;6.20;99.90
4922;DHT22;16625;53.624;10.106;2023-11-21T04:51:57;6.10;99.90
4922;DHT22;16625;53.624;10.106;2023-11-21T04:54:23;6.10;99.90
4922;DHT22;16625;53.624;10.106;2023-11-21T04:56:50;6.10;99.90
4922;DHT22;16625;53.624;10.106;2023-11-21T04:59:18;6.40;99.90
4922;DHT22;16625;53.624;10.106;2023-11-21T05:01:45;6.10;99.90
4922;DHT22;16625;53.624;10.106;2023-11-21T05:04:12;6.00;99.90
4922;DHT22;16625;53.624;10.106;2023-11-21T05:06:40;6.40;99.90
4922;DHT22;16625;53.624;10.106;2023-11-21T05:09:07;6.00;99.90
4922;DHT22;16625;53.624;10.106;2023-11-21T05:11:37;6.20;99.90
4922;DHT22;16625;53.624;10.106;2023-11-21T05:14:04;6.30;99.90
4922;DHT22;16625;53.624;10.106;2023-11-21T05:16:34;6.00;99.90
4922;DHT22;16625;53.624;10.106;2023-11-21T05:19:01;6.10;99.90
4922;DHT22;16625;53.624;10.106;2023-11-21T05:21:30;6.30;99.90
4922;DHT22;16625;53.624;10.106;2023-11-21T05:23:57;6.10;99.90
4922;DHT22;16625;53.624;10.106;2023-11-21T05:26:24;6.10;99.90
4922;DHT22;16625;53.624;10.106;2023-11-21T05:28:51;6.10;99.90
4922;DHT22;16625;53.624;10.106;2023-11-21T05:31:17;6.10;99.90
4922;DHT22;16625;53.624;10.106;2023-11-21T05:33:46;6.10;99.90
4922;DHT22;16625;53.624;10.106;2023-11-21T05:36:13;7.00;99.90
4922;DHT22;16625;53.624;10.106;2023-11-21T05:38:40;6.10;99.90
4922;DHT22;16625;53.624;10.106;2023-11-21T05:41:08;6.40;99.90
4922;DHT22;16625;53.624;10.106;2023-11-21T05:43:36;6.20;99.90
4922;DHT22;16625;53.624;10.106;2023-11-21T05:46:03;6.10;99.90
4922;DHT22;16625;53.624;10.106;2023-11-21T05:48:31;6.00;99.90
4922;DHT22;16625;53.624;10.106;2023-11-21T05:50:59;6.60;99.90
4922;DHT22;16625;53.624;10.106;2023-11-21T05:53:27;6.70;99.90
4922;DHT22;16625;53.624;10.106;2023-11-21T05:55:54;6.00;99.90
4922;DHT22;16625;53.624;10.106;2023-11-21T05:58:21;6.00;99.90
4922;DHT22;16625;53.624;10.106;2023-11-21T06:00:48;5.90;99.90
4922;DHT22;16625;53.624;10.106;2023-11-21T06:03:15;6.00;99.90
4922;DHT22;16625;53.624;10.106;2023-11-21T06:05:43;6.10;99.90
4922;DHT22;16625;53.624;10.106;2023-11-21T06:08:11;6.10;99.90
4922;DHT22;16625;53.624;10.106;2023-11-21T06:10:38;6.00;99.90
4922;DHT22;16625;53.624;10.106;2023-11-21T06:13:05;6.10;99.90
4922;DHT22;16625;53.624;10.106;2023-11-21T06:15:33;6.00;99.90
4922;DHT22;16625;53.624;10.106;2023-11-21T06:18:00;6.00;99.90
4922;DHT22;16625;53.624;10.106;2023-11-21T06:20:27;6.50;99.90
4922;DHT22;16625;53.624;10.106;2023-11-21T06:22:54;6.00;99.90
4922;DHT22;16625;53.624;10.106;2023-11-21T06:25:22;6.70;99.90
4922;DHT22;16625;53.624;10.106;2023-11-21T06:27:50;5.90;99.90
4922;DHT22;16625;53.624;10.106;2023-11-21T06:30:19;6.00;99.90
4922;DHT22;16625;53.624;10.106;2023-11-21T06:32:47;6.10;99.90
4922;DHT22;16625;53.624;10.106;2023-11-21T06:35:15;6.30;99.90
4922;DHT22;16625;53.624;10.106;2023-11-21T06:37:42;5.90;99.90
4922;DHT22;16625;53.624;10.106;2023-11-21T06:40:13;6.50;99.90
4922;DHT22;16625;53.624;10.106;2023-11-21T06:42:42;5.90;99.90
4922;DHT22;16625;53.624;10.106;2023-11-21T06:45:10;6.20;99.90
4922;DHT22;16625;53.624;10.106;2023-11-21T06:47:37;6.00;99.90
4922;DHT22;16625;53.624;10.106;2023-11-21T06:50:05;6.40;99.90
4922;DHT22;16625;53.624;10.106;2023-11-21T06:52:32;5.90;99.90
4922;DHT22;16625;53.624;10.106;2023-11-21T06:54:59;6.00;99.90
4922;DHT22;16625;53.624;10.106;2023-11-21T06:57:26;6.00;99.90
4922;DHT22;16625;53.624;10.106;2023-11-21T06:59:54;5.90;99.90
4922;DHT22;16625;53.624;10.106;2023-11-21T07:02:22;5.90;99.90
4922;DHT22;16625;53.624;10.106;2023-11-21T07:04:49;6.30;99.90
4922;DHT22;16625;53.624;10.106;2023-11-21T07:07:17;6.00;99.90
4922;DHT22;16625;53.624;10.106;2023-11-21T07:09:44;6.20;99.90
4922;DHT22;16625;53.624;10.106;2023-11-21T07:12:11;6.00;99.90
4922;DHT22;16625;53.624;10.106;2023-11-21T07:14:39;6.00;99.90
4922;DHT22;16625;53.624;10.106;2023-11-21T07:17:10;6.00;99.90
4922;DHT22;16625;53.624;10.106;2023-11-21T07:19:37;6.10;99.90
4922;DHT22;16625;53.624;10.106;2023-11-21T07:22:04;6.10;99.90
4922;DHT22;16625;53.624;10.106;2023-11-21T07:24:32;6.10;99.90
4922;DHT22;16625;53.624;10.106;2023-11-21T07:26:59;6.10;99.90
4922;DHT22;16625;53.624;10.106;2023-11-21T07:29:26;6.20;99.90
4922;DHT22;16625;53.624;10.106;2023-11-21T07:31:55;6.20;99.90
4922;DHT22;16625;53.624;10.106;2023-11-21T07:34:23;6.20;99.90
4922;DHT22;16625;53.624;10.106;2023-11-21T07:36:50;6.20;99.90
4922;DHT22;16625;53.624;10.106;2023-11-21T07:39:17;6.70;99.90
4922;DHT22;16625;53.624;10.106;2023-11-21T07:41:44;6.20;99.90
4922;DHT22;16625;53.624;10.106;2023-11-21T07:44:14;6.20;99.90
4922;DHT22;16625;53.624;10.106;2023-11-21T07:46:41;6.30;99.90
4922;DHT22;16625;53.624;10.106;2023-11-21T07:49:08;6.30;99.90
4922;DHT22;16625;53.624;10.106;2023-11-21T07:51:36;6.30;99.90
4922;DHT22;16625;53.624;10.106;2023-11-21T07:54:04;6.30;99.90
4922;DHT22;16625;53.624;10.106;2023-11-21T07:56:31;6.30;99.90
4922;DHT22;16625;53.624;10.106;2023-11-21T07:58:58;6.60;99.90
4922;DHT22;16625;53.624;10.106;2023-11-21T08:01:25;6.30;99.90
4922;DHT22;16625;53.624;10.106;2023-11-21T08:03:53;6.30;99.90
4922;DHT22;16625;53.624;10.106;2023-11-21T08:06:22;6.70;99.90
4922;DHT22;16625;53.624;10.106;2023-11-21T08:08:51;6.40;99.90
4922;DHT22;16625;53.624;10.106;2023-11-21T08:11:18;6.50;99.90
4922;DHT22;16625;53.624;10.106;2023-11-21T08:13:45;6.50;99.90
4922;DHT22;16625;53.624;10.106;2023-11-21T08:16:12;6.60;99.90
4922;DHT22;16625;53.624;10.106;2023-11-21T08:18:39;7.30;99.90
4922;DHT22;16625;53.624;10.106;2023-11-21T08:21:07;6.70;99.90
4922;DHT22;16625;53.624;10.106;2023-11-21T08:23:34;6.80;99.90
4922;DHT22;16625;53.624;10.106;2023-11-21T08:26:04;7.20;99.90
4922;DHT22;16625;53.624;10.106;2023-11-21T08:28:31;6.80;99.90
4922;DHT22;16625;53.624;10.106;2023-11-21T08:30:58;6.80;99.90
4922;DHT22;16625;53.624;10.106;2023-11-21T08:33:25;6.80;99.90
4922;DHT22;16625;53.624;10.106;2023-11-21T08:35:52;6.70;99.90
4922;DHT22;16625;53.624;10.106;2023-11-21T08:38:18;6.70;99.90
4922;DHT22;16625;53.624;10.106;2023-11-21T08:40:45;7.00;99.90
4922;DHT22;16625;53.624;10.106;2023-11-21T08:43:14;7.00;99.90
4922;DHT22;16625;53.624;10.106;2023-11-21T08:45:41;6.80;99.90
4922;DHT22;16625;53.624;10.106;2023-11-21T08:48:08;6.80;99.90
4922;DHT22;16625;53.624;10.106;2023-11-21T08:50:37;6.90;99.90
4922;DHT22;16625;53.624;10.106;2023-11-21T08:53:04;7.10;99.90
4922;DHT22;16625;53.624;10.106;2023-11-21T08:55:31;6.80;99.90
4922;DHT22;16625;53.624;10.106;2023-11-21T08:58:03;6.80;99.90
4922;DHT22;16625;53.624;10.106;2023-11-21T09:00:32;6.70;99.90
4922;DHT22;16625;53.624;10.106;2023-11-21T09:03:01;6.70;99.90
4922;DHT22;16625;53.624;10.106;2023-11-21T09:05:28;7.60;99.90
4922;DHT22;16625;53.624;10.106;2023-11-21T09:07:55;6.80;99.90
4922;DHT22;16625;53.624;10.106;2023-11-21T09:10:22;6.90;99.90
4922;DHT22;16625;53.624;10.106;2023-11-21T09:12:50;6.90;99.90
4922;DHT22;16625;53.624;10.106;2023-11-21T09:15:18;6.90;99.90
4922;DHT22;16625;53.624;10.106;2023-11-21T09:17:47;6.90;99.90
4922;DHT22;16625;53.624;10.106;2023-11-21T09:20:14;6.90;99.90
4922;DHT22;16625;53.624;10.106;2023-11-21T09:22:41;7.00;99.90
4922;DHT22;16625;53.624;10.106;2023-11-21T09:25:10;6.90;99.90
4922;DHT22;16625;53.624;10.106;2023-11-21T09:27:38;7.00;99.90
4922;DHT22;16625;53.624;10.106;2023-11-21T09:30:06;7.00;99.90
4922;DHT22;16625;53.624;10.106;2023-11-21T09:32:35;7.00;99.90
4922;DHT22;16625;53.624;10.106;2023-11-21T09:35:06;7.00;99.90
4922;DHT22;16625;53.624;10.106;2023-11-21T09:37:34;7.00;99.90
4922;DHT22;16625;53.624;10.106;2023-11-21T09:40:01;7.10;99.90
4922;DHT22;16625;53.624;10.106;2023-11-21T09:42:38;7.10;99.90
4922;DHT22;16625;53.624;10.106;2023-11-21T09:45:14;7.10;99.90
4922;DHT22;16625;53.624;10.106;2023-11-21T09:47:43;8.40;99.90
4922;DHT22;16625;53.624;10.106;2023-11-21T09:50:14;7.40;99.90
4922;DHT22;16625;53.624;10.106;2023-11-21T09:52:54;7.30;99.90
4922;DHT22;16625;53.624;10.106;2023-11-21T09:55:23;7.40;99.90
4922;DHT22;16625;53.624;10.106;2023-11-21T09:57:54;8.20;99.90
4922;DHT22;16625;53.624;10.106;2023-11-21T10:00:22;7.50;99.90
4922;DHT22;16625;53.624;10.106;2023-11-21T10:02:50;7.60;99.90
4922;DHT22;16625;53.624;10.106;2023-11-21T10:05:20;7.60;99.90
4922;DHT22;16625;53.624;10.106;2023-11-21T10:07:49;7.60;99.90
4922;DHT22;16625;53.624;10.106;2023-11-21T10:10:19;7.70;99.90
4922;DHT22;16625;53.624;10.106;2023-11-21T10:12:50;7.70;99.90
4922;DHT22;16625;53.624;10.106;2023-11-21T10:15:21;7.70;99.90
4922;DHT22;16625;53.624;10.106;2023-11-21T10:17:49;7.80;99.90
4922;DHT22;16625;53.624;10.106;2023-11-21T10:20:20;7.90;99.90
4922;DHT22;16625;53.624;10.106;2023-11-21T10:22:47;8.40;99.90
4922;DHT22;16625;53.624;10.106;2023-11-21T10:25:14;8.00;99.90
4922;DHT22;16625;53.624;10.106;2023-11-21T10:27:41;8.00;99.90
4922;DHT22;16625;53.624;10.106;2023-11-21T10:30:09;8.00;99.90
4922;DHT22;16625;53.624;10.106;2023-11-21T10:32:37;8.00;99.90
4922;DHT22;16625;53.624;10.106;2023-11-21T10:35:06;7.60;99.90
4922;DHT22;16625;53.624;10.106;2023-11-21T10:37:37;7.90;99.90
4922;DHT22;16625;53.624;10.106;2023-11-21T10:40:06;7.80;99.90
4922;DHT22;16625;53.624;10.106;2023-11-21T10:42:34;7.80;99.90
4922;DHT22;16625;53.624;10.106;2023-11-21T10:45:03;7.80;99.90
4922;DHT22;16625;53.624;10.106;2023-11-21T10:47:38;7.70;99.90
4922;DHT22;16625;53.624;10.106;2023-11-21T10:50:05;7.80;99.90
4922;DHT22;16625;53.624;10.106;2023-11-21T10:52:39;7.50;99.90
4922;DHT22;16625;53.624;10.106;2023-11-21T10:55:16;7.50;99.90
4922;DHT22;16625;53.624;10.106;2023-11-21T10:57:46;7.50;99.90
4922;DHT22;16625;53.624;10.106;2023-11-21T11:00:16;7.50;99.90
4922;DHT22;16625;53.624;10.106;2023-11-21T11:02:47;7.50;99.90
4922;DHT22;16625;53.624;10.106;2023-11-21T11:05:15;7.50;99.90
4922;DHT22;16625;53.624;10.106;2023-11-21T11:07:48;7.50;99.90
4922;DHT22;16625;53.624;10.106;2023-11-21T11:10:20;7.60;99.90
4922;DHT22;16625;53.624;10.106;2023-11-21T11:12:48;7.60;85.80
4922;DHT22;16625;53.624;10.106;2023-11-21T11:15:18;7.50;99.90
4922;DHT22;16625;53.624;10.106;2023-11-21T11:17:45;7.50;88.10
4922;DHT22;16625;53.624;10.106;2023-11-21T11:20:15;7.40;99.90
4922;DHT22;16625;53.624;10.106;2023-11-21T11:22:52;7.50;1.00
4922;DHT22;16625;53.624;10.106;2023-11-21T11:25:47;7.60;57.00
4922;DHT22;16625;53.624;10.106;2023-11-21T11:28:21;7.70;99.90
4922;DHT22;16625;53.624;10.106;2023-11-21T11:30:59;7.80;55.10
4922;DHT22;16625;53.624;10.106;2023-11-21T11:33:34;7.90;1.00
4922;DHT22;16625;53.624;10.106;2023-11-21T11:36:06;8.00;99.90
4922;DHT22;16625;53.624;10.106;2023-11-21T11:38:38;7.90;1.00
4922;DHT22;16625;53.624;10.106;2023-11-21T11:41:06;7.90;1.00
4922;DHT22;16625;53.624;10.106;2023-11-21T11:43:34;7.80;99.90
4922;DHT22;16625;53.624;10.106;2023-11-21T11:46:10;7.80;99.90
4922;DHT22;16625;53.624;10.106;2023-11-21T11:48:39;7.80;1.00
4922;DHT22;16625;53.624;10.106;2023-11-21T11:51:09;7.80;1.00
4922;DHT22;16625;53.624;10.106;2023-11-21T11:53:41;7.70;99.90
4922;DHT22;16625;53.624;10.106;2023-11-21T11:56:26;7.70;99.90
4922;DHT22;16625;53.624;10.106;2023-11-21T11:58:55;7.70;99.90
4922;DHT22;16625;53.624;10.106;2023-11-21T12:01:24;7.60;99.90
4922;DHT22;16625;53.624;10.106;2023-11-21T12:04:23;7.60;99.90
4922;DHT22;16625;53.624;10.106;2023-11-21T12:06:56;7.60;99.90
4922;DHT22;16625;53.624;10.106;2023-11-21T12:09:26;7.70;99.90
4922;DHT22;16625;53.624;10.106;2023-11-21T12:11:55;7.50;99.90
4922;DHT22;16625;53.624;10.106;2023-11-21T12:14:23;7.40;1.00
4922;DHT22;16625;53.624;10.106;2023-11-21T12:16:50;7.40;1.00
4922;DHT22;16625;53.624;10.106;2023-11-21T12:19:19;7.30;1.00
4922;DHT22;16625;53.624;10.106;2023-11-21T12:21:46;7.20;99.90
4922;DHT22;16625;53.624;10.106;2023-11-21T12:24:14;7.20;99.90
4922;DHT22;16625;53.624;10.106;2023-11-21T12:26:43;7.10;99.90
4922;DHT22;16625;53.624;10.106;2023-11-21T12:29:10;7.20;99.90
4922;DHT22;16625;53.624;10.106;2023-11-21T12:31:38;7.00;99.90
4922;DHT22;16625;53.624;10.106;2023-11-21T12:34:05;7.00;99.90
4922;DHT22;16625;53.624;10.106;2023-11-21T12:36:32;6.90;99.90
4922;DHT22;16625;53.624;10.106;2023-11-21T12:39:00;6.90;99.90
4922;DHT22;16625;53.624;10.106;2023-11-21T12:41:28;7.80;99.90
4922;DHT22;16625;53.624;10.106;2023-11-21T12:43:57;6.90;99.90
4922;DHT22;16625;53.624;10.106;2023-11-21T12:46:25;6.80;1.00
4922;DHT22;16625;53.624;10.106;2023-11-21T12:48:55;6.90;1.00
4922;DHT22;16625;53.624;10.106;2023-11-21T12:51:22;6.80;1.00
4922;DHT22;16625;53.624;10.106;2023-11-21T12:53:50;6.80;60.00
4922;DHT22;16625;53.624;10.106;2023-11-21T12:56:18;6.70;66.50
4922;DHT22;16625;53.624;10.106;2023-11-21T12:58:49;6.80;99.90
4922;DHT22;16625;53.624;10.106;2023-11-21T13:01:18;6.70;99.90
4922;DHT22;16625;53.624;10.106;2023-11-21T13:03:48;6.70;99.90
4922;DHT22;16625;53.624;10.106;2023-11-21T13:06:17;6.70;1.00
4922;DHT22;16625;53.624;10.106;2023-11-21T13:08:45;6.70;63.00
4922;DHT22;16625;53.624;10.106;2023-11-21T13:11:12;6.70;99.90
4922;DHT22;16625;53.624;10.106;2023-11-21T13:13:41;6.90;99.90
4922;DHT22;16625;53.624;10.106;2023-11-21T13:16:09;6.80;99.90
4922;DHT22;16625;53.624;10.106;2023-11-21T13:18:38;6.60;1.00
4922;DHT22;16625;53.624;10.106;2023-11-21T13:21:09;6.70;1.00
4922;DHT22;16625;53.624;10.106;2023-11-21T13:23:39;7.50;99.90
4922;DHT22;16625;53.624;10.106;2023-11-21T13:26:07;7.40;96.30
4922;DHT22;16625;53.624;10.106;2023-11-21T13:28:35;6.60;99.90
4922;DHT22;16625;53.624;10.106;2023-11-21T13:31:04;6.60;1.00
4922;DHT22;16625;53.624;10.106;2023-11-21T13:33:48;6.60;99.90
4922;DHT22;16625;53.624;10.106;2023-11-21T13:36:21;6.60;99.90
4922;DHT22;16625;53.624;10.106;2023-11-21T13:38:49;6.50;99.90
4922;DHT22;16625;53.624;10.106;2023-11-21T13:41:16;7.40;99.90
4922;DHT22;16625;53.624;10.106;2023-11-21T13:43:43;6.60;99.90
4922;DHT22;16625;53.624;10.106;2023-11-21T13:46:16;6.60;1.00
4922;DHT22;16625;53.624;10.106;2023-11-21T13:48:48;6.50;99.90
4922;DHT22;16625;53.624;10.106;2023-11-21T13:51:21;6.50;99.90
4922;DHT22;16625;53.624;10.106;2023-11-21T13:53:56;6.50;1.00
4922;DHT22;16625;53.624;10.106;2023-11-21T13:56:23;6.40;1.00
4922;DHT22;16625;53.624;10.106;2023-11-21T13:58:52;6.40;99.90
4922;DHT22;16625;53.624;10.106;2023-11-21T14:01:20;6.40;1.00
4922;DHT22;16625;53.624;10.106;2023-11-21T14:04:12;6.30;1.00
4922;DHT22;16625;53.624;10.106;2023-11-21T14:06:46;6.30;1.00
4922;DHT22;16625;53.624;10.106;2023-11-21T14:09:14;6.30;99.90
4922;DHT22;16625;53.624;10.106;2023-11-21T14:11:49;6.20;99.90
4922;DHT22;16625;53.624;10.106;2023-11-21T14:14:17;6.30;99.90
4922;DHT22;16625;53.624;10.106;2023-11-21T14:16:44;7.30;99.90
4922;DHT22;16625;53.624;10.106;2023-11-21T14:19:12;6.30;99.90
4922;DHT22;16625;53.624;10.106;2023-11-21T14:21:42;6.20;39.10
4922;DHT22;16625;53.624;10.106;2023-11-21T14:24:11;6.30;88.40
4922;DHT22;16625;53.624;10.106;2023-11-21T14:26:40;6.70;96.70
4922;DHT22;16625;53.624;10.106;2023-11-21T14:29:08;6.10;1.00
4922;DHT22;16625;53.624;10.106;2023-11-21T14:31:38;6.00;1.00
4922;DHT22;16625;53.624;10.106;2023-11-21T14:34:05;6.50;1.00
4922;DHT22;16625;53.624;10.106;2023-11-21T14:36:34;6.70;1.00
4922;DHT22;16625;53.624;10.106;2023-11-21T14:39:02;5.80;1.00
4922;DHT22;16625;53.624;10.106;2023-11-21T14:41:32;5.80;1.00
4922;DHT22;16625;53.624;10.106;2023-11-21T14:44:01;5.80;1.00
4922;DHT22;16625;53.624;10.106;2023-11-21T14:46:30;5.80;1.00
4922;DHT22;16625;53.624;10.106;2023-11-21T14:48:57;5.90;1.00
4922;DHT22;16625;53.624;10.106;2023-11-21T14:51:34;5.70;1.00
4922;DHT22;16625;53.624;10.106;2023-11-21T14:54:21;5.70;1.00
4922;DHT22;16625;53.624;10.106;2023-11-21T14:57:01;5.70;1.00
4922;DHT22;16625;53.624;10.106;2023-11-21T14:59:27;5.80;1.00
4922;DHT22;16625;53.624;10.106;2023-11-21T15:01:53;5.70;31.30
4922;DHT22;16625;53.624;10.106;2023-11-21T15:04:22;5.70;99.90
4922;DHT22;16625;53.624;10.106;2023-11-21T15:07:00;5.60;99.90
4922;DHT22;16625;53.624;10.106;2023-11-21T15:09:26;5.70;1.00
4922;DHT22;16625;53.624;10.106;2023-11-21T15:12:06;6.00;1.00
4922;DHT22;16625;53.624;10.106;2023-11-21T15:14:43;5.60;99.90
4922;DHT22;16625;53.624;10.106;2023-11-21T15:17:11;5.50;99.90
4922;DHT22;16625;53.624;10.106;2023-11-21T15:19:47;5.90;38.70
4922;DHT22;16625;53.624;10.106;2023-11-21T15:22:17;5.90;1.00
4922;DHT22;16625;53.624;10.106;2023-11-21T15:24:44;5.30;99.90
4922;DHT22;16625;53.624;10.106;2023-11-21T15:27:13;5.20;1.00
4922;DHT22;16625;53.624;10.106;2023-11-21T15:29:41;5.20;1.00
4922;DHT22;16625;53.624;10.106;2023-11-21T15:32:08;5.20;1.00
4922;DHT22;16625;53.624;10.106;2023-11-21T15:34:36;5.20;1.00
4922;DHT22;16625;53.624;10.106;2023-11-21T15:37:04;5.10;1.00
4922;DHT22;16625;53.624;10.106;2023-11-21T15:39:34;5.10;1.00
4922;DHT22;16625;53.624;10.106;2023-11-21T15:42:01;5.10;1.00
4922;DHT22;16625;53.624;10.106;2023-11-21T15:44:29;5.10;99.90
4922;DHT22;16625;53.624;10.106;2023-11-21T15:46:58;5.10;1.00
4922;DHT22;16625;53.624;10.106;2023-11-21T15:49:25;5.10;1.00
4922;DHT22;16625;53.624;10.106;2023-11-21T15:51:55;5.60;1.00
4922;DHT22;16625;53.624;10.106;2023-11-21T15:54:25;5.00;39.50
4922;DHT22;16625;53.624;10.106;2023-11-21T15:56:54;5.00;99.90